Time;durP1;ratioP1;P1;durP2;ratioP2;P2;SDS_P1;SDS_P2;PMS_P1;PMS_P2;Temp;Humidity;BMP_temperature;BMP_pressure;BME280_temperature;BME280_humidity;BME280_pressure;Samples;Min_cycle;Max_cycle;Signal;HPM_P1;HPM_P2
2022/08/07 00:00:28;;;;;;;2.00;1.27;;;14.80;99.90;;;;;;5051470;28;20047;-69
2022/08/07 00:02:55;;;;;;;3.40;1.85;;;15.00;95.90;;;;;;5052516;28;20036;-69
2022/08/07 00:05:22;;;;;;;3.17;1.80;;;15.30;99.90;;;;;;5050363;28;20056;-69
2022/08/07 00:07:47;;;;;;;4.30;2.05;;;15.00;99.90;;;;;;5046856;28;20121;-69
2022/08/07 00:10:14;;;;;;;2.80;1.75;;;14.90;99.90;;;;;;5050727;28;20491;-69
2022/08/07 00:12:39;;;;;;;2.90;1.80;;;15.00;96.20;;;;;;5051671;28;20029;-69
2022/08/07 00:15:06;;;;;;;3.95;1.90;;;14.50;99.90;;;;;;5051786;28;20031;-69
2022/08/07 00:17:31;;;;;;;4.82;1.92;;;14.90;96.10;;;;;;5051297;28;20103;-70
2022/08/07 00:19:57;;;;;;;3.47;2.38;;;14.90;96.20;;;;;;5051759;28;20104;-69
2022/08/07 00:22:22;;;;;;;4.05;2.30;;;14.90;96.30;;;;;;5051205;28;20017;-69
2022/08/07 00:24:48;;;;;;;4.47;2.00;;;14.80;96.30;;;;;;5050619;28;20036;-69
2022/08/07 00:27:13;;;;;;;3.53;2.40;;;14.90;99.90;;;;;;5050630;28;20045;-69
2022/08/07 00:29:39;;;;;;;2.28;2.08;;;14.80;96.40;;;;;;5045371;28;20374;-69
2022/08/07 00:32:05;;;;;;;2.60;2.28;;;14.80;96.60;;;;;;5047751;28;20039;-69
2022/08/07 00:34:31;;;;;;;2.70;1.73;;;14.80;99.90;;;;;;5051279;28;20029;-69
2022/08/07 00:36:57;;;;;;;4.78;2.50;;;14.60;96.80;;;;;;5051619;28;20032;-70
2022/08/07 00:39:22;;;;;;;3.67;2.33;;;14.60;96.90;;;;;;5064869;28;20023;-70
2022/08/07 00:41:54;;;;;;;3.63;2.03;;;14.70;97.00;;;;;;5051753;28;20017;-70
2022/08/07 00:44:20;;;;;;;4.50;2.40;;;14.60;96.50;;;;;;5052622;28;20029;-69
2022/08/07 00:46:46;;;;;;;3.97;2.25;;;14.50;97.20;;;;;;5049768;28;20525;-69
2022/08/07 00:49:12;;;;;;;2.80;2.30;;;14.30;99.90;;;;;;5047158;28;20025;-69
2022/08/07 00:51:38;;;;;;;2.40;1.98;;;14.60;97.50;;;;;;5052304;28;20359;-69
2022/08/07 00:54:03;;;;;;;3.90;2.47;;;14.50;97.50;;;;;;5056675;28;20029;-69
2022/08/07 00:56:29;;;;;;;3.28;2.85;;;14.40;97.50;;;;;;5057683;28;20043;-69
2022/08/07 00:58:55;;;;;;;4.20;2.75;;;14.60;99.90;;;;;;5049652;28;20108;-69
2022/08/07 01:01:21;;;;;;;4.32;2.90;;;14.20;99.90;;;;;;5050517;28;20049;-69
2022/08/07 01:03:48;;;;;;;2.75;2.10;;;14.10;99.90;;;;;;5050979;28;20025;-69
2022/08/07 01:06:14;;;;;;;2.90;2.60;;;14.20;99.90;;;;;;5050963;28;20634;-69
2022/08/07 01:08:40;;;;;;;4.55;3.00;;;14.20;99.90;;;;;;5050973;28;20060;-68
2022/08/07 01:11:07;;;;;;;3.35;2.95;;;14.00;99.90;;;;;;5050849;28;20382;-69
2022/08/07 01:13:33;;;;;;;3.65;2.85;;;14.00;99.90;;;;;;5051064;28;20572;-68
2022/08/07 01:16:01;;;;;;;6.10;2.95;;;14.00;99.90;;;;;;5050968;28;20032;-69
2022/08/07 01:18:28;;;;;;;2.90;2.45;;;14.00;99.90;;;;;;5050974;28;20086;-68
2022/08/07 01:21:10;;;;;;;4.30;2.65;;;14.10;99.90;;;;;;5050865;28;20104;-69
2022/08/07 01:23:37;;;;;;;5.53;2.80;;;14.10;99.90;;;;;;5050589;28;20021;-68
2022/08/07 01:26:04;;;;;;;5.28;3.45;;;13.50;99.90;;;;;;5050539;28;20363;-69
2022/08/07 01:28:30;;;;;;;3.83;3.10;;;13.90;99.90;;;;;;5050917;28;20037;-68
2022/08/07 01:30:56;;;;;;;3.33;2.78;;;13.90;99.90;;;;;;5050052;28;20033;-68
2022/08/07 01:33:23;;;;;;;4.22;2.67;;;13.90;99.90;;;;;;5050477;28;20040;-68
2022/08/07 01:35:49;;;;;;;4.75;2.70;;;13.80;98.80;;;;;;5050789;28;20033;-68
2022/08/07 01:38:16;;;;;;;4.78;3.35;;;13.60;99.90;;;;;;5049806;28;20048;-68
2022/08/07 01:40:44;;;;;;;5.35;3.25;;;14.10;99.90;;;;;;5050711;28;20025;-68
2022/08/07 01:43:10;;;;;;;4.88;3.50;;;13.80;99.90;;;;;;5050217;28;20033;-68
2022/08/07 01:45:36;;;;;;;3.53;2.83;;;13.70;99.90;;;;;;5050721;28;20112;-68
2022/08/07 01:48:03;;;;;;;5.40;3.40;;;13.90;99.90;;;;;;5050470;28;20090;-69
2022/08/07 01:50:29;;;;;;;5.80;3.47;;;13.80;98.30;;;;;;5049765;28;20104;-68
2022/08/07 01:52:57;;;;;;;5.07;3.45;;;13.80;99.90;;;;;;5050393;28;20083;-69
2022/08/07 01:55:33;;;;;;;3.35;3.00;;;13.80;99.90;;;;;;5050239;28;20091;-68
2022/08/07 01:58:01;;;;;;;3.78;3.17;;;13.60;99.90;;;;;;5050308;28;20369;-68
2022/08/07 02:00:29;;;;;;;3.35;2.55;;;13.80;99.90;;;;;;5047037;28;20625;-68
2022/08/07 02:03:02;;;;;;;4.95;3.70;;;13.80;98.60;;;;;;5050286;28;20028;-68
2022/08/07 02:05:43;;;;;;;8.33;3.50;;;13.70;99.90;;;;;;5049656;28;20116;-68
2022/08/07 02:08:12;;;;;;;4.72;3.45;;;13.80;99.90;;;;;;5050168;28;20390;-68
2022/08/07 02:10:39;;;;;;;5.28;3.53;;;13.70;99.90;;;;;;5050197;28;20025;-68
2022/08/07 02:13:05;;;;;;;6.13;4.20;;;13.50;99.90;;;;;;5050135;28;20040;-69
2022/08/07 02:15:33;;;;;;;4.57;3.47;;;13.60;99.90;;;;;;5048994;28;20032;-69
2022/08/07 02:18:00;;;;;;;8.00;3.25;;;13.60;99.90;;;;;;5050000;28;20116;-68
2022/08/07 02:20:27;;;;;;;3.75;2.95;;;13.60;99.90;;;;;;5049309;28;20024;-68
2022/08/07 02:23:01;;;;;;;3.25;2.75;;;13.60;99.30;;;;;;5047357;28;20021;-68
2022/08/07 02:25:29;;;;;;;4.43;3.50;;;13.50;99.90;;;;;;5043909;28;20435;-68
2022/08/07 02:27:56;;;;;;;5.47;3.53;;;13.50;98.80;;;;;;5050111;28;20065;-68
2022/08/07 02:30:23;;;;;;;5.47;4.10;;;13.50;99.90;;;;;;5049711;28;20529;-68
2022/08/07 02:32:51;;;;;;;5.53;3.92;;;13.50;99.90;;;;;;5049855;28;20021;-68
2022/08/07 02:35:18;;;;;;;5.28;3.40;;;13.40;99.90;;;;;;5049080;28;20021;-69
2022/08/07 02:37:45;;;;;;;6.95;4.20;;;13.10;99.90;;;;;;5049840;28;20013;-69
2022/08/07 02:40:11;;;;;;;4.05;3.40;;;13.50;99.90;;;;;;5049337;28;20482;-68
2022/08/07 02:42:38;;;;;;;4.68;3.92;;;13.40;99.90;;;;;;5049843;28;20036;-68
2022/08/07 02:45:07;;;;;;;3.95;3.47;;;13.40;99.90;;;;;;5049559;28;20025;-69
2022/08/07 02:47:33;;;;;;;4.72;3.10;;;13.10;99.90;;;;;;5049799;28;20040;-68
2022/08/07 02:49:59;;;;;;;6.20;4.20;;;13.40;99.90;;;;;;5049079;28;20022;-68
2022/08/07 02:52:39;;;;;;;4.40;3.53;;;13.30;99.90;;;;;;5048414;28;20036;-68
2022/08/07 02:55:21;;;;;;;5.30;4.15;;;13.30;99.70;;;;;;5049158;28;20025;-68
2022/08/07 02:57:48;;;;;;;6.20;4.70;;;13.20;99.90;;;;;;5049776;28;20385;-68
2022/08/07 03:00:15;;;;;;;4.85;3.63;;;13.20;99.90;;;;;;5048950;28;20053;-68
2022/08/07 03:02:44;;;;;;;5.75;4.20;;;13.20;99.90;;;;;;5050202;28;20021;-68
2022/08/07 03:05:10;;;;;;;5.55;3.53;;;13.20;99.80;;;;;;5049436;28;20025;-69
2022/08/07 03:07:37;;;;;;;7.60;3.85;;;13.20;99.90;;;;;;5049730;28;20112;-68
2022/08/07 03:10:04;;;;;;;8.93;4.10;;;13.10;99.90;;;;;;5049531;28;20017;-68
2022/08/07 03:12:32;;;;;;;6.75;4.57;;;13.20;99.90;;;;;;5049349;28;20025;-69
2022/08/07 03:14:59;;;;;;;6.68;5.05;;;13.10;99.90;;;;;;5050324;28;20021;-68
2022/08/07 03:17:25;;;;;;;6.95;4.82;;;13.10;99.90;;;;;;5050514;28;20055;-68
2022/08/07 03:19:52;;;;;;;5.35;4.80;;;13.10;99.90;;;;;;5048970;28;20033;-68
2022/08/07 03:22:20;;;;;;;5.97;4.97;;;13.00;99.90;;;;;;5048785;28;20057;-68
2022/08/07 03:24:47;;;;;;;5.95;4.20;;;13.00;99.90;;;;;;5049566;28;20048;-68
2022/08/07 03:27:14;;;;;;;7.18;4.60;;;13.10;99.90;;;;;;5051520;28;20055;-69
2022/08/07 03:29:46;;;;;;;6.10;4.70;;;13.10;99.90;;;;;;5053352;28;20044;-68
2022/08/07 03:32:13;;;;;;;7.13;5.03;;;13.10;99.90;;;;;;5051541;28;20389;-68
2022/08/07 03:34:40;;;;;;;5.85;4.40;;;13.10;99.90;;;;;;5052963;28;20028;-68
2022/08/07 03:37:08;;;;;;;6.90;5.18;;;12.90;99.90;;;;;;5053136;28;20033;-68
2022/08/07 03:39:35;;;;;;;5.78;4.78;;;13.00;99.90;;;;;;5052636;28;20028;-68
2022/08/07 03:42:03;;;;;;;6.63;4.75;;;13.00;99.90;;;;;;5052903;28;20024;-68
2022/08/07 03:44:29;;;;;;;7.32;5.47;;;13.00;99.90;;;;;;5052759;28;20516;-68
2022/08/07 03:46:55;;;;;;;9.48;5.18;;;;;;;;;;5052043;28;20033;-68
2022/08/07 03:49:21;;;;;;;7.00;5.03;;;13.00;99.90;;;;;;5051504;28;20029;-69
2022/08/07 03:51:48;;;;;;;7.80;5.47;;;12.90;99.90;;;;;;5052809;28;20128;-69
2022/08/07 03:54:14;;;;;;;6.88;4.95;;;12.90;99.90;;;;;;5052480;28;20029;-69
2022/08/07 03:56:40;;;;;;;7.30;5.13;;;13.00;99.90;;;;;;5052676;28;20402;-68
2022/08/07 03:59:06;;;;;;;5.72;5.13;;;14.20;99.90;;;;;;5052569;28;20033;-68
2022/08/07 04:01:34;;;;;;;6.38;5.38;;;12.70;99.90;;;;;;5051933;28;20721;-68
2022/08/07 04:04:00;;;;;;;8.48;5.60;;;12.70;99.90;;;;;;5052197;28;20036;-68
2022/08/07 04:06:26;;;;;;;8.68;5.45;;;12.70;99.90;;;;;;5052348;28;20041;-68
2022/08/07 04:08:52;;;;;;;5.88;5.13;;;12.70;99.90;;;;;;5052531;28;20043;-68
2022/08/07 04:11:18;;;;;;;8.60;5.93;;;12.40;99.90;;;;;;5051992;28;20036;-68
2022/08/07 04:13:45;;;;;;;6.40;5.70;;;12.50;99.90;;;;;;5052358;28;20025;-68
2022/08/07 04:16:11;;;;;;;6.88;5.13;;;12.50;99.90;;;;;;5051566;28;20063;-68
2022/08/07 04:18:37;;;;;;;7.90;5.10;;;12.60;99.90;;;;;;5049788;28;20087;-68
2022/08/07 04:21:03;;;;;;;7.22;6.25;;;12.50;99.90;;;;;;5051688;28;20486;-68
2022/08/07 04:23:30;;;;;;;7.93;6.03;;;12.50;99.90;;;;;;5052182;28;20056;-68
2022/08/07 04:25:56;;;;;;;8.23;5.55;;;12.30;99.90;;;;;;5051893;28;20013;-68
2022/08/07 04:28:21;;;;;;;8.40;6.65;;;12.60;99.90;;;;;;5051875;28;20060;-68
2022/08/07 04:30:50;;;;;;;8.57;6.70;;;12.50;99.90;;;;;;5051632;28;20086;-68
2022/08/07 04:33:16;;;;;;;9.82;6.57;;;12.30;99.90;;;;;;5051256;28;20504;-68
2022/08/07 04:35:45;;;;;;;7.47;6.13;;;12.60;99.90;;;;;;5051876;28;20501;-68
2022/08/07 04:38:11;;;;;;;9.45;6.20;;;12.50;99.90;;;;;;5050951;28;20104;-68
2022/08/07 04:40:41;;;;;;;8.98;5.72;;;12.80;99.90;;;;;;5050625;28;20120;-68
2022/08/07 04:43:07;;;;;;;11.38;6.00;;;12.50;99.90;;;;;;5051607;28;20028;-69
2022/08/07 04:45:59;;;;;;;9.52;6.88;;;12.50;99.90;;;;;;5051107;28;20040;-68
2022/08/07 04:48:44;;;;;;;9.18;6.93;;;12.50;99.90;;;;;;5050796;28;20473;-69
2022/08/07 04:51:20;;;;;;;17.55;7.15;;;12.60;99.90;;;;;;5043238;28;20477;-68
2022/08/07 04:53:52;;;;;;;8.55;6.35;;;12.40;99.90;;;;;;5051756;28;20020;-68
2022/08/07 04:56:23;;;;;;;9.15;6.70;;;12.50;99.90;;;;;;5051256;28;20087;-68
2022/08/07 04:58:59;;;;;;;7.00;5.75;;;12.50;99.90;;;;;;5051592;28;20021;-68
2022/08/07 05:01:40;;;;;;;7.25;6.47;;;12.40;99.90;;;;;;5051234;28;20076;-69
2022/08/07 05:04:32;;;;;;;9.18;6.20;;;12.50;99.90;;;;;;5051418;28;20031;-69
2022/08/07 05:07:13;;;;;;;10.20;5.85;;;12.50;99.90;;;;;;5050636;28;20393;-68
2022/08/07 05:09:58;;;;;;;8.68;6.13;;;12.60;99.90;;;;;;5051268;28;20417;-68
2022/08/07 05:12:53;;;;;;;7.53;6.22;;;12.60;99.90;;;;;;5050369;28;20103;-68
2022/08/07 05:15:23;;;;;;;9.25;6.63;;;12.70;99.90;;;;;;5045440;28;20021;-68
2022/08/07 05:17:55;;;;;;;8.40;7.05;;;12.80;99.90;;;;;;5050806;28;20024;-68
2022/08/07 05:20:25;;;;;;;8.80;6.80;;;12.90;99.90;;;;;;5047635;28;20666;-68
2022/08/07 05:22:55;;;;;;;9.02;7.78;;;13.00;99.90;;;;;;5050745;28;20031;-68
2022/08/07 05:25:22;;;;;;;9.95;7.57;;;13.20;99.90;;;;;;5050647;28;20029;-68
2022/08/07 05:27:49;;;;;;;9.45;7.57;;;12.70;99.90;;;;;;5053337;28;20037;-69
2022/08/07 05:30:16;;;;;;;9.48;6.65;;;13.30;99.90;;;;;;5058216;28;20111;-68
2022/08/07 05:32:46;;;;;;;10.88;7.13;;;13.30;99.90;;;;;;5050587;28;20497;-68
2022/08/07 05:35:13;;;;;;;8.07;6.68;;;13.50;99.90;;;;;;5050573;28;20064;-68
2022/08/07 05:37:40;;;;;;;8.05;6.07;;;13.60;99.90;;;;;;5051063;28;20096;-68
2022/08/07 05:40:07;;;;;;;8.98;7.82;;;13.50;99.90;;;;;;5051211;28;20021;-69
2022/08/07 05:42:34;;;;;;;13.43;8.77;;;13.40;99.90;;;;;;5050183;28;20094;-68
2022/08/07 05:45:00;;;;;;;11.15;7.70;;;13.50;99.90;;;;;;5050172;28;20112;-68
2022/08/07 05:47:26;;;;;;;9.20;7.32;;;13.80;99.90;;;;;;5050227;28;20041;-68
2022/08/07 05:49:53;;;;;;;9.20;7.20;;;13.90;99.90;;;;;;5049167;28;20029;-68
2022/08/07 05:52:18;;;;;;;9.95;7.93;;;13.80;99.90;;;;;;5054993;28;20054;-69
2022/08/07 05:54:44;;;;;;;10.77;7.80;;;13.80;99.90;;;;;;5050401;28;20020;-68
2022/08/07 05:57:11;;;;;;;11.23;7.50;;;14.00;99.90;;;;;;5049258;28;20056;-69
2022/08/07 05:59:38;;;;;;;13.48;8.05;;;13.90;99.90;;;;;;5050113;28;20021;-68
2022/08/07 06:02:06;;;;;;;11.93;7.68;;;14.00;99.90;;;;;;5050229;28;20044;-69
2022/08/07 06:04:36;;;;;;;10.20;7.88;;;14.10;99.90;;;;;;5050097;28;20090;-68
2022/08/07 06:07:04;;;;;;;9.73;7.72;;;14.20;99.90;;;;;;5049768;28;20566;-68
2022/08/07 06:09:31;;;;;;;13.50;8.98;;;14.20;99.90;;;;;;5049917;28;20495;-68
2022/08/07 06:11:57;;;;;;;8.45;7.55;;;14.30;99.90;;;;;;5049781;28;20029;-68
2022/08/07 06:14:23;;;;;;;12.23;8.10;;;14.50;99.90;;;;;;5049831;28;20025;-69
2022/08/07 06:16:50;;;;;;;10.40;8.20;;;14.40;99.90;;;;;;5045493;28;20035;-69
2022/08/07 06:19:17;;;;;;;13.77;8.50;;;14.10;99.90;;;;;;5049426;28;20029;-68
2022/08/07 06:21:44;;;;;;;11.13;8.63;;;14.50;99.90;;;;;;5050199;28;20032;-68
2022/08/07 06:24:10;;;;;;;11.35;8.55;;;14.60;99.90;;;;;;5049516;28;20097;-69
2022/08/07 06:26:38;;;;;;;11.48;9.73;;;14.70;99.90;;;;;;5049534;28;20474;-69
2022/08/07 06:29:04;;;;;;;10.02;7.43;;;14.80;99.90;;;;;;5048477;28;20029;-69
2022/08/07 06:31:30;;;;;;;10.27;7.97;;;14.80;99.90;;;;;;5047284;28;20091;-68
2022/08/07 06:33:55;;;;;;;13.15;8.57;;;14.70;99.90;;;;;;5049641;28;20500;-68
2022/08/07 06:36:21;;;;;;;10.88;8.05;;;15.00;99.90;;;;;;5049859;28;20473;-69
2022/08/07 06:38:46;;;;;;;10.15;7.72;;;15.00;99.90;;;;;;5049827;28;20509;-68
2022/08/07 06:41:25;;;;;;;9.88;7.25;;;15.10;99.90;;;;;;5048934;28;20021;-69
2022/08/07 06:43:53;;;;;;;9.52;7.40;;;15.20;99.90;;;;;;5049931;28;20028;-69
2022/08/07 06:46:19;;;;;;;8.20;7.03;;;15.30;99.90;;;;;;5049189;28;20033;-69
2022/08/07 06:48:45;;;;;;;10.30;6.85;;;15.40;99.90;;;;;;5049809;28;20098;-69
2022/08/07 06:51:16;;;;;;;9.38;6.80;;;15.40;99.90;;;;;;5049378;28;20021;-69
2022/08/07 06:53:43;;;;;;;9.65;6.63;;;15.40;99.90;;;;;;5048504;28;20028;-68
2022/08/07 06:56:11;;;;;;;9.25;7.65;;;15.50;99.90;;;;;;5049159;28;20029;-69
2022/08/07 06:58:39;;;;;;;7.28;6.57;;;15.60;99.90;;;;;;5049663;28;20147;-68
2022/08/07 07:01:07;;;;;;;7.38;6.05;;;15.70;99.90;;;;;;5050046;28;20379;-68
2022/08/07 07:03:34;;;;;;;7.95;6.35;;;15.80;99.90;;;;;;5053397;28;20032;-68
2022/08/07 07:05:59;;;;;;;9.60;5.47;;;15.80;99.70;;;;;;5053570;28;20032;-68
2022/08/07 07:08:29;;;;;;;8.05;6.32;;;15.90;99.50;;;;;;5053448;28;20481;-68
2022/08/07 07:10:55;;;;;;;6.90;5.90;;;16.00;99.60;;;;;;5053054;28;20756;-69
2022/08/07 07:13:43;;;;;;;8.27;6.38;;;16.10;99.20;;;;;;5053299;28;20029;-68
2022/08/07 07:16:15;;;;;;;7.82;5.85;;;16.30;99.50;;;;;;5046012;28;20052;-68
2022/08/07 07:18:49;;;;;;;7.72;5.35;;;16.40;99.10;;;;;;5053584;28;20029;-68
2022/08/07 07:21:25;;;;;;;7.40;6.43;;;16.50;99.00;;;;;;5053048;28;20029;-68
2022/08/07 07:23:51;;;;;;;7.03;5.82;;;16.60;98.70;;;;;;5053216;28;20090;-68
2022/08/07 07:26:19;;;;;;;8.00;5.63;;;16.70;98.10;;;;;;5052606;28;20435;-68
2022/08/07 07:28:52;;;;;;;7.65;5.38;;;16.80;98.10;;;;;;5053340;28;20086;-68
2022/08/07 07:31:28;;;;;;;6.20;4.63;;;16.90;98.10;;;;;;5053132;28;20033;-68
2022/08/07 07:34:00;;;;;;;9.50;5.78;;;17.00;97.20;;;;;;5053293;28;20021;-68
2022/08/07 07:36:27;;;;;;;7.60;4.85;;;17.10;97.70;;;;;;5052868;28;20047;-68
2022/08/07 07:38:52;;;;;;;4.80;4.30;;;17.20;97.30;;;;;;5052804;28;20037;-68
2022/08/07 07:41:21;;;;;;;6.38;5.25;;;17.20;97.20;;;;;;5052314;28;20025;-68
2022/08/07 07:43:49;;;;;;;6.80;5.15;;;17.40;97.20;;;;;;5051873;28;20071;-68
2022/08/07 07:46:15;;;;;;;8.20;5.32;;;17.40;96.90;;;;;;5051661;28;20029;-68
2022/08/07 07:48:41;;;;;;;5.32;4.82;;;17.60;96.50;;;;;;5052968;28;20079;-68
2022/08/07 07:51:09;;;;;;;6.40;4.93;;;17.80;96.30;;;;;;5052844;28;20082;-68
2022/08/07 07:53:43;;;;;;;5.63;4.50;;;17.90;96.10;;;;;;5052657;28;20366;-68
2022/08/07 07:56:11;;;;;;;6.03;4.05;;;17.90;96.00;;;;;;5052662;28;20053;-68
2022/08/07 07:58:38;;;;;;;5.00;3.55;;;17.90;95.60;;;;;;5052716;28;20453;-68
2022/08/07 08:01:05;;;;;;;8.27;4.90;;;18.10;95.50;;;;;;5052573;28;20129;-69
2022/08/07 08:03:33;;;;;;;8.82;4.38;;;18.10;95.20;;;;;;5052847;28;20595;-68
2022/08/07 08:06:00;;;;;;;4.03;3.28;;;18.20;95.20;;;;;;5052760;28;20481;-68
2022/08/07 08:08:29;;;;;;;4.03;2.55;;;18.30;94.80;;;;;;5051965;28;20037;-68
2022/08/07 08:10:55;;;;;;;6.07;2.85;;;18.40;94.60;;;;;;5052256;28;20044;-68
2022/08/07 08:13:23;;;;;;;5.70;2.28;;;18.40;94.30;;;;;;5049974;28;20024;-68
2022/08/07 08:15:49;;;;;;;3.05;1.63;;;18.40;94.20;;;;;;5042231;28;20079;-68
2022/08/07 08:18:15;;;;;;;4.63;2.65;;;18.50;93.90;;;;;;5050950;28;20032;-68
2022/08/07 08:20:42;;;;;;;4.07;2.35;;;19.40;93.90;;;;;;5049906;28;20052;-68
2022/08/07 08:28:44;;;;;;;5.90;2.20;;;19.00;93.30;;;;;;5051595;28;20051;-68
2022/08/07 08:31:14;;;;;;;3.63;2.55;;;19.10;92.90;;;;;;5051149;28;20415;-68
2022/08/07 08:33:41;;;;;;;3.40;2.28;;;19.30;92.80;;;;;;5050672;28;20025;-69
2022/08/07 08:36:09;;;;;;;4.80;3.08;;;19.20;92.60;;;;;;5051182;28;20133;-69
2022/08/07 08:38:42;;;;;;;4.65;2.58;;;19.30;92.50;;;;;;5050504;28;20166;-69
2022/08/07 08:41:28;;;;;;;5.18;3.17;;;19.30;92.50;;;;;;5051142;28;20033;-69
2022/08/07 08:44:09;;;;;;;4.13;2.88;;;19.40;91.70;;;;;;5049891;28;20052;-68
2022/08/07 08:47:10;;;;;;;3.65;2.00;;;19.50;91.50;;;;;;5044068;28;20029;-68
2022/08/07 08:49:40;;;;;;;3.58;2.33;;;19.50;92.20;;;;;;4990313;28;20026;-68
2022/08/07 08:52:27;;;;;;;4.15;2.85;;;19.50;91.30;;;;;;4989461;28;20136;-68
2022/08/07 08:55:06;;;;;;;2.35;1.85;;;19.30;91.40;;;;;;4990238;28;20065;-68
2022/08/07 08:57:59;;;;;;;3.00;2.15;;;19.70;91.40;;;;;;4989558;28;20039;-69
2022/08/07 09:00:29;;;;;;;3.10;1.77;;;19.80;93.60;;;;;;4989209;28;20042;-69
2022/08/07 09:03:01;;;;;;;3.78;1.67;;;19.70;91.00;;;;;;4989818;28;20039;-68
2022/08/07 09:05:45;;;;;;;3.72;2.22;;;19.80;90.90;;;;;;4989065;28;20154;-69
2022/08/07 09:08:34;;;;;;;4.22;1.65;;;19.80;89.40;;;;;;4988345;28;20117;-68
2022/08/07 09:11:16;;;;;;;2.33;1.77;;;19.90;89.30;;;;;;4989420;28;20525;-69
2022/08/07 09:13:47;;;;;;;4.32;1.65;;;19.80;89.10;;;;;;4986356;28;20053;-69
2022/08/07 09:16:16;;;;;;;2.92;1.98;;;20.00;88.90;;;;;;4986063;28;20511;-69
2022/08/07 09:18:56;;;;;;;2.10;1.52;;;20.10;90.10;;;;;;4986342;28;20523;-69
2022/08/07 09:21:30;;;;;;;2.72;1.45;;;20.30;90.00;;;;;;4988186;28;20426;-69
2022/08/07 09:24:09;;;;;;;3.47;1.95;;;20.30;89.50;;;;;;5027900;28;20033;-68
2022/08/07 09:26:49;;;;;;;4.97;1.67;;;20.30;88.90;;;;;;5050317;28;20489;-69
2022/08/07 09:29:33;;;;;;;2.05;1.50;;;20.40;86.70;;;;;;5049600;28;20097;-69
2022/08/07 09:32:30;;;;;;;2.35;1.20;;;20.50;87.20;;;;;;5038950;28;20128;-69
2022/08/07 09:35:19;;;;;;;1.75;1.30;;;20.60;85.10;;;;;;5049746;28;20136;-69
2022/08/07 09:38:02;;;;;;;2.25;1.48;;;20.70;84.60;;;;;;5049906;28;20028;-69
2022/08/07 09:40:41;;;;;;;1.88;1.27;;;20.70;83.70;;;;;;5049142;28;20112;-69
2022/08/07 09:43:15;;;;;;;4.65;1.48;;;20.80;83.60;;;;;;5049944;28;20112;-69
2022/08/07 09:45:57;;;;;;;2.22;1.42;;;21.80;86.00;;;;;;5043888;28;20509;-69
2022/08/07 09:48:40;;;;;;;1.83;1.13;;;20.60;85.20;;;;;;5048673;28;20037;-69
2022/08/07 09:51:24;;;;;;;1.75;1.17;;;20.90;83.20;;;;;;5048933;28;20013;-69
2022/08/07 09:53:55;;;;;;;3.70;1.65;;;21.00;84.70;;;;;;5048631;28;20033;-69
2022/08/07 09:56:26;;;;;;;1.83;1.00;;;21.00;84.10;;;;;;5049011;28;20420;-69
2022/08/07 09:59:08;;;;;;;1.70;1.08;;;21.10;83.80;;;;;;5049230;28;20099;-69
2022/08/07 10:01:55;;;;;;;1.38;0.90;;;21.10;80.90;;;;;;5048010;28;20493;-69
2022/08/07 10:04:29;;;;;;;2.88;1.73;;;21.10;81.10;;;;;;5047973;28;20470;-70
2022/08/07 10:07:16;;;;;;;2.35;1.65;;;21.00;79.90;;;;;;5049563;28;20453;-70
2022/08/07 10:09:55;;;;;;;3.28;1.55;;;21.10;82.70;;;;;;5048920;28;20025;-69
2022/08/07 10:12:50;;;;;;;2.35;1.60;;;21.00;82.40;;;;;;5049286;28;20020;-69
2022/08/07 10:15:31;;;;;;;3.50;1.25;;;21.10;80.60;;;;;;5046730;28;20017;-69
2022/08/07 10:18:32;;;;;;;3.28;1.38;;;21.10;80.30;;;;;;5046660;28;20029;-69
2022/08/07 10:21:06;;;;;;;4.55;1.58;;;21.30;80.50;;;;;;5047710;28;20386;-69
2022/08/07 10:23:37;;;;;;;2.80;1.40;;;21.30;81.40;;;;;;5049392;28;20067;-69
2022/08/07 10:26:26;;;;;;;3.55;1.50;;;21.40;78.90;;;;;;5049825;28;20025;-69
2022/08/07 10:29:14;;;;;;;1.95;1.30;;;21.60;78.30;;;;;;5050600;28;20036;-69
2022/08/07 10:31:40;;;;;;;3.63;1.88;;;21.60;78.00;;;;;;5049769;28;20553;-69
2022/08/07 10:34:29;;;;;;;2.35;1.48;;;21.60;78.90;;;;;;5049295;28;20031;-70
2022/08/07 10:37:04;;;;;;;3.00;1.70;;;21.60;79.70;;;;;;5039075;28;20041;-70
2022/08/07 10:40:01;;;;;;;1.88;1.40;;;21.70;77.70;;;;;;5049471;28;20025;-70
2022/08/07 10:42:41;;;;;;;2.22;1.75;;;21.60;78.10;;;;;;5039600;28;20067;-69
2022/08/07 10:45:28;;;;;;;1.27;1.00;;;21.70;79.70;;;;;;5049579;28;20390;-69
2022/08/07 10:48:12;;;;;;;2.50;1.20;;;21.80;78.10;;;;;;5047518;28;20044;-69
2022/08/07 10:50:55;;;;;;;1.80;1.50;;;22.40;80.20;;;;;;5048719;28;20546;-69
2022/08/07 10:53:50;;;;;;;2.10;1.20;;;22.00;79.00;;;;;;5047970;28;20045;-69
2022/08/07 10:56:47;;;;;;;2.15;1.50;;;22.00;76.70;;;;;;5047656;28;20458;-69
2022/08/07 10:59:34;;;;;;;2.78;2.03;;;21.90;76.80;;;;;;5037756;28;20176;-68
2022/08/07 11:02:25;;;;;;;2.42;1.70;;;22.10;77.90;;;;;;5048890;28;20123;-70
2022/08/07 11:05:22;;;;;;;2.40;1.65;;;22.20;77.20;;;;;;5047049;28;20021;-69
2022/08/07 11:07:56;;;;;;;3.03;1.50;;;22.30;75.00;;;;;;5046469;28;20041;-70
2022/08/07 11:10:42;;;;;;;4.90;1.77;;;22.30;73.40;;;;;;5047661;28;20025;-70
2022/08/07 11:13:12;;;;;;;3.35;1.58;;;22.30;74.20;;;;;;5045416;28;20467;-70
2022/08/07 11:15:41;;;;;;;2.10;1.70;;;22.30;74.40;;;;;;5049258;28;20031;-70
2022/08/07 11:18:18;;;;;;;2.40;1.75;;;22.40;74.70;;;;;;5045593;28;20013;-69
2022/08/07 11:20:54;;;;;;;2.60;1.67;;;22.50;75.00;;;;;;5048712;28;20020;-70
2022/08/07 11:23:41;;;;;;;3.15;1.67;;;22.70;74.80;;;;;;5048569;28;20108;-71
2022/08/07 11:26:11;;;;;;;2.20;1.40;;;22.70;74.80;;;;;;5043941;28;20052;-69
2022/08/07 11:28:48;;;;;;;2.08;1.75;;;22.70;73.40;;;;;;5047225;28;20766;-69
2022/08/07 11:31:42;;;;;;;2.28;1.70;;;23.00;74.00;;;;;;5045945;28;20063;-70
2022/08/07 11:34:19;;;;;;;4.88;2.33;;;23.10;71.50;;;;;;5044608;28;20480;-70
2022/08/07 11:37:05;;;;;;;9.10;4.68;;;23.20;71.40;;;;;;5049230;28;20498;-69
2022/08/07 11:40:02;;;;;;;4.10;2.58;;;23.30;73.60;;;;;;5048948;28;20086;-73
2022/08/07 11:43:10;;;;;;;6.07;2.47;;;23.30;71.60;;;;;;5037764;28;20132;-72
2022/08/07 11:45:58;;;;;;;6.22;2.60;;;23.40;72.20;;;;;;5048719;28;20021;-70
2022/08/07 11:48:45;;;;;;;3.63;2.15;;;23.40;75.50;;;;;;5051484;28;20069;-71
2022/08/07 11:51:52;;;;;;;2.35;2.00;;;23.30;73.90;;;;;;5045947;28;20026;-71
2022/08/07 11:54:39;;;;;;;3.10;2.33;;;23.30;73.60;;;;;;5009741;28;20418;-71
2022/08/07 11:57:27;;;;;;;2.58;1.98;;;23.00;73.30;;;;;;5010427;28;20514;-71
2022/08/07 12:00:04;;;;;;;2.65;1.95;;;22.90;73.30;;;;;;5008066;28;20050;-70
2022/08/07 12:02:48;;;;;;;2.83;1.70;;;22.80;73.40;;;;;;4998815;28;20073;-70
2022/08/07 12:05:26;;;;;;;2.95;1.80;;;22.70;73.40;;;;;;5004499;28;20104;-70
2022/08/07 12:08:14;;;;;;;5.30;2.10;;;22.60;73.90;;;;;;4999818;28;20549;-70
2022/08/07 12:10:48;;;;;;;2.13;1.50;;;22.50;75.10;;;;;;4995528;28;20406;-69
2022/08/07 12:13:24;;;;;;;6.32;2.05;;;22.60;77.00;;;;;;5002710;28;20030;-70
2022/08/07 12:15:54;;;;;;;4.70;1.80;;;22.70;76.90;;;;;;5000046;28;20038;-71
2022/08/07 12:18:53;;;;;;;2.58;1.88;;;22.40;76.00;;;;;;5008734;28;20041;-70
2022/08/07 12:21:40;;;;;;;3.85;1.92;;;23.10;74.10;;;;;;5007539;28;20052;-69
2022/08/07 12:24:18;;;;;;;1.65;1.42;;;23.30;76.00;;;;;;5004662;28;20175;-71
2022/08/07 12:26:51;;;;;;;2.85;2.05;;;23.30;73.50;;;;;;5008939;28;20104;-71
2022/08/07 12:29:41;;;;;;;2.33;2.13;;;23.40;74.40;;;;;;5043969;28;20771;-70
2022/08/07 12:32:28;;;;;;;4.68;1.65;;;23.40;72.30;;;;;;5048043;28;20021;-71
2022/08/07 12:34:56;;;;;;;2.42;1.80;;;23.50;72.20;;;;;;5049101;28;20521;-71
2022/08/07 12:37:24;;;;;;;5.65;1.58;;;23.50;73.30;;;;;;5051114;28;20029;-72
2022/08/07 12:39:53;;;;;;;2.90;2.05;;;25.00;73.70;;;;;;5052655;28;20033;-71
2022/08/07 12:42:23;;;;;;;2.28;1.83;;;24.60;72.90;;;;;;5052149;28;20064;-71
2022/08/07 12:44:50;;;;;;;2.60;1.77;;;23.90;72.60;;;;;;5051383;28;20410;-69
2022/08/07 12:47:33;;;;;;;4.25;1.90;;;24.10;71.80;;;;;;5051268;28;20063;-70
2022/08/07 12:50:05;;;;;;;3.55;1.80;;;24.20;70.30;;;;;;5052162;28;20059;-71
2022/08/07 12:52:51;;;;;;;4.72;2.45;;;24.10;71.70;;;;;;5053311;28;20029;-71
2022/08/07 12:55:22;;;;;;;1.75;1.38;;;24.40;69.70;;;;;;5040026;28;20132;-71
2022/08/07 12:57:50;;;;;;;3.45;2.10;;;24.00;68.80;;;;;;5050870;28;20053;-72
2022/08/07 13:00:16;;;;;;;3.17;1.85;;;24.90;71.80;;;;;;5045381;28;20098;-72
2022/08/07 13:03:11;;;;;;;3.72;1.80;;;24.30;71.80;;;;;;5038557;28;20075;-71
2022/08/07 13:06:14;;;;;;;2.17;1.50;;;24.10;69.80;;;;;;5050061;28;20016;-70
2022/08/07 13:08:50;;;;;;;4.00;2.10;;;24.20;69.20;;;;;;5046315;28;20068;-67
2022/08/07 13:11:54;;;;;;;2.58;1.83;;;24.20;67.60;;;;;;5044708;28;20028;-66
2022/08/07 13:14:55;;;;;;;2.50;1.48;;;24.30;68.10;;;;;;5049043;28;20121;-66
2022/08/07 13:17:37;;;;;;;1.90;1.58;;;24.10;69.90;;;;;;5027887;28;20026;-70
2022/08/07 13:20:13;;;;;;;2.17;1.75;;;24.20;69.40;;;;;;5026323;28;20148;-70